Time;durP1;ratioP1;P1;durP2;ratioP2;P2;SDS_P1;SDS_P2;PMS_P1;PMS_P2;Temp;Humidity;BMP_temperature;BMP_pressure;BME280_temperature;BME280_humidity;BME280_pressure;Samples;Min_cycle;Max_cycle;Signal;HPM_P1;HPM_P2
2022/04/23 00:00:35;;;;;;;9.95;5.80;;;;;;;12.50;73.75;98888.75;5036540;28;20096;-62
2022/04/23 00:03:01;;;;;;;8.55;5.78;;;;;;;12.43;74.84;98881.56;5039949;28;20326;-63
2022/04/23 00:05:28;;;;;;;10.85;5.55;;;;;;;12.19;76.39;98876.69;5038932;28;20063;-62
2022/04/23 00:07:54;;;;;;;19.35;9.05;;;;;;;12.45;75.01;98887.47;5038599;28;20025;-63
2022/04/23 00:10:19;;;;;;;13.25;6.60;;;;;;;12.68;74.05;98881.94;5039319;28;20048;-63
2022/04/23 00:12:46;;;;;;;11.00;5.40;;;;;;;12.60;73.47;98871.47;5038169;28;20231;-63
2022/04/23 00:15:12;;;;;;;8.82;5.90;;;;;;;12.68;73.18;98873.97;5039681;28;20037;-63
2022/04/23 00:17:37;;;;;;;7.93;5.57;;;;;;;12.79;73.15;98884.03;5039763;28;20036;-63
2022/04/23 00:20:05;;;;;;;9.77;6.40;;;;;;;12.81;72.78;98891.78;5038107;28;20052;-62
2022/04/23 00:22:30;;;;;;;11.35;6.57;;;;;;;12.76;72.70;98891.56;5039068;28;20037;-63
2022/04/23 00:24:57;;;;;;;11.75;7.30;;;;;;;12.80;73.13;98884.84;5037961;28;20033;-63
2022/04/23 00:27:23;;;;;;;10.73;5.95;;;;;;;12.85;73.48;98878.94;5039093;28;20082;-62
2022/04/23 00:29:48;;;;;;;10.43;6.80;;;;;;;12.87;72.69;98887.53;5038263;28;20038;-63
2022/04/23 00:32:14;;;;;;;15.05;8.52;;;;;;;12.76;73.20;98883.59;5039861;28;20017;-63
2022/04/23 00:34:40;;;;;;;12.10;7.53;;;;;;;12.44;74.43;98883.19;5038148;28;20095;-62
2022/04/23 00:37:05;;;;;;;14.23;8.00;;;;;;;12.58;74.60;98884.13;5038422;28;20017;-62
2022/04/23 00:39:32;;;;;;;12.25;7.28;;;;;;;12.67;73.60;98888.25;5039238;28;20033;-62
2022/04/23 00:42:00;;;;;;;14.77;8.10;;;;;;;12.51;74.45;98891.22;5037413;28;20067;-63
2022/04/23 00:44:26;;;;;;;10.20;6.75;;;;;;;12.33;75.49;98886.38;5038948;28;20113;-62
2022/04/23 00:46:51;;;;;;;12.23;7.20;;;;;;;12.49;73.90;98884.47;5037713;28;20025;-63
2022/04/23 00:49:17;;;;;;;10.07;6.25;;;;;;;12.64;73.78;98879.84;5037936;28;20075;-62
2022/04/23 00:51:42;;;;;;;9.30;6.47;;;;;;;12.63;71.87;98873.72;5039001;28;20029;-62
2022/04/23 00:54:09;;;;;;;9.82;7.22;;;;;;;12.60;70.76;98875.94;5037600;28;20076;-62
2022/04/23 00:56:39;;;;;;;15.32;7.93;;;;;;;12.55;71.87;98881.03;5037347;28;20307;-62
2022/04/23 00:59:09;;;;;;;14.73;10.63;;;;;;;12.44;72.33;98879.72;5037775;28;20017;-63
2022/04/23 01:01:35;;;;;;;22.75;12.43;;;;;;;12.24;73.68;98890.19;5037160;28;20033;-62
2022/04/23 01:04:02;;;;;;;16.02;10.40;;;;;;;12.00;75.40;98886.13;5037161;28;20075;-63
2022/04/23 01:06:33;;;;;;;20.10;10.30;;;;;;;12.07;76.06;98886.19;5038677;28;20025;-62
2022/04/23 01:09:00;;;;;;;16.02;10.68;;;;;;;12.33;75.11;98893.53;5037810;28;20048;-63
2022/04/23 01:11:26;;;;;;;21.60;11.10;;;;;;;12.35;73.17;98904.78;5037703;28;20358;-62
2022/04/23 01:13:51;;;;;;;18.70;12.50;;;;;;;12.33;74.54;98899.66;5037065;28;20079;-63
2022/04/23 01:16:19;;;;;;;24.35;13.68;;;;;;;12.20;74.88;98896.91;5038368;28;20133;-62
2022/04/23 01:18:44;;;;;;;18.35;12.50;;;;;;;11.92;76.08;98882.81;5038173;28;20033;-62
2022/04/23 01:21:10;;;;;;;15.95;11.05;;;;;;;12.04;75.28;98890.06;5036967;28;20029;-62
2022/04/23 01:23:40;;;;;;;18.70;11.18;;;;;;;12.10;74.22;98876.00;5038534;28;20363;-62
2022/04/23 01:26:07;;;;;;;20.80;11.27;;;;;;;12.12;74.17;98879.28;5036798;28;20348;-62
2022/04/23 01:28:34;;;;;;;16.40;11.18;;;;;;;12.13;74.02;98886.25;5037097;28;20331;-62
2022/04/23 01:31:00;;;;;;;16.77;11.20;;;;;;;12.15;74.46;98878.91;5036977;28;20222;-62
2022/04/23 01:33:25;;;;;;;15.60;9.82;;;;;;;12.25;73.91;98883.06;5036956;28;20363;-62
2022/04/23 01:35:51;;;;;;;18.55;9.90;;;;;;;12.15;75.40;98904.63;5038326;28;20037;-63
2022/04/23 01:38:16;;;;;;;16.65;9.07;;;;;;;12.01;75.67;98914.31;5036518;28;20033;-63
2022/04/23 01:40:42;;;;;;;15.32;9.00;;;;;;;12.11;75.20;98919.28;5037684;28;20115;-63
2022/04/23 01:43:09;;;;;;;13.48;8.85;;;;;;;12.09;75.54;98919.47;5036348;28;20030;-63
2022/04/23 01:45:36;;;;;;;13.75;7.68;;;;;;;12.22;74.35;98905.50;5039450;28;20033;-62
2022/04/23 01:48:01;;;;;;;10.88;7.00;;;;;;;12.15;74.98;98901.97;5036799;28;20095;-62
2022/04/23 01:50:27;;;;;;;15.95;7.43;;;;;;;12.30;74.53;98915.97;5037825;28;20093;-62
2022/04/23 01:52:52;;;;;;;11.82;6.25;;;;;;;12.25;74.02;98922.88;5037992;28;20216;-63
2022/04/23 01:55:18;;;;;;;14.50;6.60;;;;;;;12.03;74.75;98908.81;5036401;28;20430;-63
2022/04/23 01:57:43;;;;;;;13.32;6.28;;;;;;;12.13;74.33;98926.06;5037745;28;20029;-63
2022/04/23 02:00:11;;;;;;;11.27;5.97;;;;;;;11.46;77.75;98915.81;5037711;28;20312;-62
2022/04/23 02:02:37;;;;;;;10.30;6.85;;;;;;;11.10;80.24;98921.06;5038402;28;20041;-62
2022/04/23 02:05:07;;;;;;;11.02;6.38;;;;;;;11.04;80.27;98907.75;5035770;28;20041;-63
2022/04/23 02:07:40;;;;;;;14.48;6.80;;;;;;;11.23;79.56;98906.34;5036534;28;20315;-62
2022/04/23 02:10:07;;;;;;;9.45;6.63;;;;;;;11.24;79.46;98915.94;5034168;28;20048;-62
2022/04/23 02:12:33;;;;;;;11.15;6.32;;;;;;;11.57;77.40;98911.84;5037440;28;20039;-62
2022/04/23 02:15:00;;;;;;;16.02;5.82;;;;;;;11.46;77.57;98920.28;5035611;28;20029;-62
2022/04/23 02:17:35;;;;;;;13.38;6.43;;;;;;;11.28;78.37;98912.72;5036980;28;20061;-63
2022/04/23 02:20:03;;;;;;;11.02;6.88;;;;;;;11.40;78.60;98927.13;5037342;28;20096;-62
2022/04/23 02:22:28;;;;;;;11.60;6.43;;;;;;;11.40;78.88;98928.94;5036042;28;20021;-62
2022/04/23 02:24:53;;;;;;;14.48;6.55;;;;;;;11.32;78.74;98926.41;5037725;28;20037;-62
2022/04/23 02:27:19;;;;;;;10.57;6.15;;;;;;;11.66;77.68;98925.78;5037846;28;20100;-63
2022/04/23 02:29:44;;;;;;;12.57;6.85;;;;;;;11.91;75.10;98929.75;5036258;28;20242;-62
2022/04/23 02:32:10;;;;;;;11.35;6.82;;;;;;;11.70;76.01;98933.19;5036399;28;20092;-62
2022/04/23 02:34:35;;;;;;;11.30;6.38;;;;;;;11.79;76.63;98940.03;5037421;28;20108;-62
2022/04/23 02:37:01;;;;;;;14.02;6.80;;;;;;;11.69;75.98;98950.09;5036558;28;20327;-63
2022/04/23 02:39:27;;;;;;;12.70;7.15;;;;;;;11.15;77.85;98941.72;5036077;28;20049;-63
2022/04/23 02:41:52;;;;;;;16.85;6.80;;;;;;;11.21;79.17;98951.56;5037340;28;20033;-63
2022/04/23 02:44:19;;;;;;;13.30;7.32;;;;;;;11.43;77.89;98949.78;5035778;28;20096;-63
2022/04/23 02:46:45;;;;;;;12.10;6.65;;;;;;;11.32;77.84;98955.56;5038981;28;20398;-62
2022/04/23 02:49:11;;;;;;;11.50;7.25;;;;;;;11.40;77.32;98948.31;5036996;28;20037;-62
2022/04/23 02:51:36;;;;;;;13.35;8.20;;;;;;;11.50;76.75;98950.72;5035422;28;20075;-62
2022/04/23 02:54:02;;;;;;;13.30;7.18;;;;;;;11.69;76.02;98963.38;5035673;28;20034;-62
2022/04/23 02:56:28;;;;;;;13.85;7.32;;;;;;;11.71;75.59;98957.88;5037351;28;20034;-62
2022/04/23 02:58:54;;;;;;;11.57;7.10;;;;;;;11.73;75.23;98964.63;5035590;28;20037;-62
2022/04/23 03:01:22;;;;;;;10.90;6.80;;;;;;;11.52;75.50;98961.94;5033415;28;20024;-63
2022/04/23 03:03:48;;;;;;;11.90;7.40;;;;;;;11.51;76.04;98966.44;5035904;28;20418;-63
2022/04/23 03:06:14;;;;;;;17.98;7.20;;;;;;;11.46;76.31;98960.88;5037898;28;20361;-62
2022/04/23 03:08:40;;;;;;;11.80;7.03;;;;;;;11.51;75.39;98960.31;5036077;28;20033;-62
2022/04/23 03:11:06;;;;;;;14.07;7.68;;;;;;;11.49;75.58;98970.28;5036903;28;20045;-62
2022/04/23 03:13:34;;;;;;;13.13;7.55;;;;;;;11.42;75.38;98983.44;5037327;28;20060;-62
2022/04/23 03:16:00;;;;;;;14.43;7.88;;;;;;;11.15;76.58;98994.69;5035638;28;20068;-63
2022/04/23 03:18:26;;;;;;;13.38;8.45;;;;;;;10.97;78.25;98991.59;5035505;28;20025;-62
2022/04/23 03:20:52;;;;;;;13.52;8.50;;;;;;;10.82;78.48;98997.72;5035867;28;20040;-62
2022/04/23 03:23:19;;;;;;;18.55;8.50;;;;;;;10.95;78.18;99014.81;5036053;28;20041;-62
2022/04/23 03:25:45;;;;;;;15.40;8.15;;;;;;;10.77;78.47;99021.28;5035753;28;20030;-62
2022/04/23 03:28:13;;;;;;;18.58;9.52;;;;;;;10.63;79.09;99022.06;5039812;28;20140;-62
2022/04/23 03:30:40;;;;;;;13.68;8.85;;;;;;;10.53;79.66;99013.56;5038879;28;20033;-62
2022/04/23 03:33:05;;;;;;;15.75;9.38;;;;;;;10.54;79.20;99009.91;5039341;28;20025;-62
2022/04/23 03:35:31;;;;;;;19.33;9.95;;;;;;;10.62;78.68;99011.66;5040011;28;20025;-63
2022/04/23 03:37:56;;;;;;;14.95;10.35;;;;;;;10.60;78.68;99011.84;5039688;28;20029;-62
2022/04/23 03:40:22;;;;;;;19.27;9.65;;;;;;;10.58;78.75;99015.69;5039160;28;20096;-62
2022/04/23 03:42:48;;;;;;;23.63;11.32;;;;;;;10.62;79.30;99011.66;5039825;28;20048;-61
2022/04/23 03:45:15;;;;;;;20.38;11.68;;;;;;;10.79;79.03;99008.69;5039428;28;20029;-62
2022/04/23 03:47:45;;;;;;;21.05;11.48;;;;;;;11.06;76.69;99014.34;5040240;28;20037;-62
2022/04/23 03:50:11;;;;;;;30.58;13.00;;;;;;;11.01;77.62;99011.44;5038581;28;20029;-62
2022/04/23 03:52:37;;;;;;;30.90;15.20;;;;;;;11.16;77.12;98991.88;5038817;28;20079;-62
2022/04/23 03:55:04;;;;;;;25.77;17.55;;;;;;;11.05;77.73;98994.16;5039156;28;20042;-63
2022/04/23 03:57:29;;;;;;;32.97;18.17;;;;;;;11.29;77.46;98998.34;5038765;28;20249;-63
2022/04/23 03:59:55;;;;;;;35.92;17.25;;;;;;;11.36;76.99;98989.47;5037668;28;20037;-62
2022/04/23 04:02:20;;;;;;;23.65;15.15;;;;;;;11.11;78.52;98990.78;5038252;28;20126;-63
2022/04/23 04:04:46;;;;;;;23.08;14.38;;;;;;;11.28;77.82;99002.00;5020549;28;20319;-62
2022/04/23 04:07:21;;;;;;;25.50;15.20;;;;;;;11.38;77.53;99000.72;5039368;28;20021;-62
2022/04/23 04:09:46;;;;;;;24.77;13.70;;;;;;;11.50;78.30;99009.03;5038187;28;20119;-63
2022/04/23 04:12:12;;;;;;;22.17;12.13;;;;;;;11.59;77.25;98994.66;5038516;28;20308;-63
2022/04/23 04:14:39;;;;;;;20.60;12.20;;;;;;;11.50;77.68;98993.94;5038871;28;20041;-62
2022/04/23 04:17:12;;;;;;;24.88;12.27;;;;;;;11.56;78.35;98997.69;5038371;28;20057;-63
2022/04/23 04:19:38;;;;;;;17.42;10.45;;;;;;;11.83;76.83;98994.34;5040243;28;20061;-62
2022/04/23 04:22:06;;;;;;;18.67;10.60;;;;;;;12.14;76.00;99002.00;5039686;28;20037;-62
2022/04/23 04:24:32;;;;;;;18.20;10.80;;;;;;;12.14;75.82;98993.22;5038222;28;20071;-63
2022/04/23 04:26:58;;;;;;;19.65;11.52;;;;;;;12.34;74.95;98991.56;5038910;28;20334;-62
2022/04/23 04:29:28;;;;;;;24.55;15.02;;;;;;;12.66;74.72;98992.03;5041030;28;20030;-62
2022/04/23 04:31:54;;;;;;;28.48;13.13;;;;;;;12.81;74.02;98990.09;5040589;28;20036;-62
2022/04/23 04:34:23;;;;;;;19.67;10.85;;;;;;;12.84;73.32;99003.00;5037690;28;20026;-62
2022/04/23 04:36:49;;;;;;;19.52;10.48;;;;;;;13.05;72.96;99002.91;5039252;28;20373;-62
2022/04/23 04:39:16;;;;;;;20.73;9.77;;;;;;;13.21;72.88;99006.28;5038531;28;20033;-62
2022/04/23 04:41:42;;;;;;;19.85;9.88;;;;;;;13.17;73.07;99010.38;5039037;28;20044;-63
2022/04/23 04:44:08;;;;;;;17.17;9.18;;;;;;;13.29;72.29;99004.28;5038364;28;20033;-63
2022/04/23 04:46:34;;;;;;;23.55;9.75;;;;;;;13.61;70.16;99010.78;5037950;28;20380;-63
2022/04/23 04:49:02;;;;;;;16.70;9.15;;;;;;;13.74;69.48;99005.53;5038871;28;20083;-63
2022/04/23 04:51:28;;;;;;;20.00;9.40;;;;;;;13.93;69.45;99013.75;5037847;28;20296;-63
2022/04/23 04:53:55;;;;;;;22.77;10.55;;;;;;;13.79;70.26;99006.75;5039026;28;20021;-62
2022/04/23 04:56:20;;;;;;;21.02;10.30;;;;;;;13.75;71.69;99001.00;5038414;28;20109;-62
2022/04/23 04:58:47;;;;;;;19.63;9.77;;;;;;;13.93;71.13;98995.94;5037807;28;20025;-63
2022/04/23 05:01:13;;;;;;;20.95;10.77;;;;;;;14.19;70.23;98997.00;5038746;28;20025;-62
2022/04/23 05:03:40;;;;;;;21.75;10.25;;;;;;;14.42;69.66;99015.25;5037116;28;20055;-63
2022/04/23 05:06:06;;;;;;;24.88;11.43;;;;;;;14.70;70.11;99015.94;5037040;28;20045;-63
2022/04/23 05:08:34;;;;;;;21.60;14.32;;;;;;;14.72;70.67;99010.38;5038771;28;20029;-63
2022/04/23 05:10:59;;;;;;;24.75;16.80;;;;;;;14.97;69.97;99014.88;5036821;28;20343;-63
2022/04/23 05:13:25;;;;;;;26.48;18.00;;;;;;;15.22;69.16;99031.00;5037055;28;20041;-63
2022/04/23 05:15:51;;;;;;;26.17;16.58;;;;;;;15.36;67.54;99025.63;5038277;28;20045;-63
2022/04/23 05:18:17;;;;;;;24.67;15.48;;;;;;;15.33;68.42;99016.22;5037086;28;20037;-62
2022/04/23 05:20:42;;;;;;;25.23;15.30;;;;;;;15.41;67.08;99015.97;5039204;28;20044;-62
2022/04/23 05:23:08;;;;;;;23.08;13.73;;;;;;;15.41;66.13;99015.16;5039657;28;20041;-63
2022/04/23 05:25:33;;;;;;;31.95;13.38;;;;;;;15.04;68.86;99016.69;5037351;28;20036;-63
2022/04/23 05:27:58;;;;;;;18.80;10.30;;;;;;;14.84;68.84;99014.06;5037797;28;20041;-63
2022/04/23 05:30:24;;;;;;;16.17;9.48;;;;;;;14.58;69.23;99007.72;5039190;28;20037;-63
2022/04/23 05:32:49;;;;;;;18.25;9.50;;;;;;;14.44;69.61;98999.91;5042550;28;20064;-62
2022/04/23 05:35:15;;;;;;;15.75;8.48;;;;;;;14.80;69.93;99028.84;5042137;28;20108;-63
2022/04/23 05:37:40;;;;;;;13.30;7.90;;;;;;;14.99;69.43;99020.81;5042265;28;20040;-62
2022/04/23 05:40:06;;;;;;;13.98;7.15;;;;;;;14.76;68.89;99032.94;5042628;28;20050;-62
2022/04/23 05:42:32;;;;;;;13.95;7.70;;;;;;;14.90;69.05;99029.22;5042715;28;20079;-63
2022/04/23 05:44:57;;;;;;;19.40;8.98;;;;;;;15.13;68.23;99034.94;5042245;28;20025;-63
2022/04/23 05:47:23;;;;;;;14.52;7.15;;;;;;;15.08;68.46;99034.75;5042490;28;20021;-63
2022/04/23 05:49:48;;;;;;;16.60;7.85;;;;;;;15.39;68.39;99038.56;5041462;28;20059;-63
2022/04/23 05:52:14;;;;;;;17.50;8.00;;;;;;;15.78;67.53;99043.81;5041936;28;20340;-63
2022/04/23 05:54:40;;;;;;;12.85;6.93;;;;;;;15.76;66.50;99048.53;5042382;28;20100;-63
2022/04/23 05:57:05;;;;;;;11.38;7.43;;;;;;;15.93;66.17;99043.53;5042295;28;20037;-63
2022/04/23 05:59:31;;;;;;;18.65;7.43;;;;;;;16.24;65.04;99048.06;5041998;28;20047;-63
2022/04/23 06:01:57;;;;;;;15.68;7.72;;;;;;;16.43;64.53;99052.44;5042473;28;20082;-63
2022/04/23 06:04:23;;;;;;;11.68;7.03;;;;;;;16.63;63.40;99038.13;5041527;28;20033;-64
2022/04/23 06:06:49;;;;;;;16.30;6.95;;;;;;;17.34;61.56;99051.91;5041713;28;20048;-63
2022/04/23 06:09:14;;;;;;;12.43;5.80;;;;;;;17.49;59.91;99051.53;5042366;28;20235;-63
2022/04/23 06:11:40;;;;;;;13.30;5.50;;;;;;;17.82;58.21;99054.69;5042059;28;20327;-63
2022/04/23 06:14:05;;;;;;;12.23;5.43;;;;;;;17.95;58.31;99058.22;5041773;28;20033;-63
2022/04/23 06:16:31;;;;;;;12.30;5.35;;;;;;;18.52;56.72;99051.44;5041921;28;20316;-62
2022/04/23 06:18:57;;;;;;;9.88;4.93;;;;;;;18.47;55.98;99053.97;5041796;28;20029;-62
2022/04/23 06:21:22;;;;;;;9.82;4.97;;;;;;;18.92;56.10;99048.16;5041833;28;20033;-64
2022/04/23 06:23:48;;;;;;;9.88;4.88;;;;;;;18.83;54.76;99053.03;5041761;28;20068;-63
2022/04/23 06:26:14;;;;;;;9.45;4.55;;;;;;;18.91;55.74;99049.19;5041906;28;20030;-63
2022/04/23 06:28:39;;;;;;;12.00;4.68;;;;;;;19.29;54.37;99056.78;5042191;28;20029;-63
2022/04/23 06:31:05;;;;;;;8.30;4.68;;;;;;;19.31;53.81;99052.78;5041243;28;20033;-63
2022/04/23 06:33:30;;;;;;;7.00;4.10;;;;;;;19.24;54.30;99046.75;5041533;28;20031;-63
2022/04/23 06:35:56;;;;;;;9.82;4.90;;;;;;;18.95;53.75;99056.56;5041651;28;20033;-63
2022/04/23 06:38:21;;;;;;;9.65;5.07;;;;;;;19.00;53.06;99061.22;5041506;28;20029;-63
2022/04/23 06:40:47;;;;;;;7.57;4.68;;;;;;;19.22;52.41;99054.22;5041496;28;20101;-63
2022/04/23 06:43:13;;;;;;;12.05;5.15;;;;;;;19.36;52.00;99044.84;5041976;28;20025;-63
2022/04/23 06:45:39;;;;;;;17.15;5.78;;;;;;;19.52;51.26;99045.19;5041217;28;20213;-63
2022/04/23 06:48:05;;;;;;;9.80;4.88;;;;;;;19.56;51.24;99049.06;5041634;28;20037;-63
2022/04/23 06:50:31;;;;;;;11.32;4.95;;;;;;;19.73;50.63;99049.94;5040948;28;20029;-62
2022/04/23 06:52:59;;;;;;;13.75;4.93;;;;;;;19.61;51.61;99051.84;5041644;28;20105;-63
2022/04/23 06:55:24;;;;;;;9.05;4.90;;;;;;;19.63;51.90;99052.41;5041553;28;20047;-63
2022/04/23 06:57:49;;;;;;;9.38;4.75;;;;;;;19.28;53.08;99057.81;5041750;28;20037;-62
2022/04/23 07:00:16;;;;;;;12.23;5.28;;;;;;;19.07;54.62;99057.38;5041450;28;20034;-62
2022/04/23 07:02:41;;;;;;;12.52;5.60;;;;;;;18.89;55.27;99068.22;5045272;28;20288;-64
2022/04/23 07:05:07;;;;;;;11.50;5.72;;;;;;;19.28;54.24;99064.00;5044803;28;20111;-63
2022/04/23 07:07:35;;;;;;;10.98;5.93;;;;;;;19.17;53.94;99067.50;5045162;28;20065;-63
2022/04/23 07:10:01;;;;;;;12.68;5.80;;;;;;;19.38;53.65;99061.53;5045439;28;20208;-63
2022/04/23 07:12:27;;;;;;;9.68;5.22;;;;;;;19.66;54.35;99068.88;5045259;28;20497;-63
2022/04/23 07:14:52;;;;;;;12.88;5.75;;;;;;;20.25;51.93;99066.00;5045112;28;20025;-63
2022/04/23 07:17:24;;;;;;;9.57;5.20;;;;;;;20.73;50.09;99070.91;5045081;28;20327;-63
2022/04/23 07:19:53;;;;;;;14.80;5.60;;;;;;;20.99;49.75;99062.19;5045222;28;20056;-63
2022/04/23 07:22:19;;;;;;;8.38;4.95;;;;;;;21.26;48.68;99072.31;5045215;28;20033;-63
2022/04/23 07:24:44;;;;;;;11.18;5.20;;;;;;;21.63;47.34;99070.66;5045179;28;20264;-63
2022/04/23 07:27:11;;;;;;;7.00;4.93;;;;;;;21.83;46.78;99067.41;5045094;28;20045;-63
2022/04/23 07:29:37;;;;;;;9.05;5.47;;;;;;;21.71;47.01;99069.41;5045021;28;20052;-63
2022/04/23 07:32:03;;;;;;;11.55;5.30;;;;;;;22.04;46.26;99073.91;5044686;28;20278;-64
2022/04/23 07:37:31;;;;;;;13.15;5.47;;;;;;;22.32;45.44;99078.25;5044711;28;20096;-66
2022/04/23 07:40:02;;;;;;;10.32;5.72;;;;;;;22.52;44.51;99069.53;5041655;28;20096;-66
2022/04/23 07:42:28;;;;;;;7.60;4.82;;;;;;;22.52;44.05;99066.81;5040269;28;20040;-66
2022/04/23 07:44:54;;;;;;;6.78;4.88;;;;;;;22.78;43.43;99065.97;5044603;28;20315;-66
2022/04/23 07:47:20;;;;;;;9.38;5.30;;;;;;;22.55;45.25;99066.31;5044632;28;20101;-66
2022/04/23 07:49:46;;;;;;;8.50;4.78;;;;;;;22.66;43.91;99065.34;5044580;28;20033;-66
2022/04/23 07:52:11;;;;;;;13.55;5.35;;;;;;;22.44;45.57;99067.28;5044051;28;20107;-67
2022/04/23 07:54:41;;;;;;;12.60;5.57;;;;;;;22.56;45.04;99063.38;5038235;28;20038;-66
2022/04/23 07:57:07;;;;;;;15.10;5.40;;;;;;;22.78;45.56;99063.28;5036864;28;20350;-66
2022/04/23 07:59:33;;;;;;;11.20;5.40;;;;;;;23.07;44.72;99058.41;5037608;28;20033;-66
2022/04/23 08:01:58;;;;;;;9.60;6.03;;;;;;;22.87;43.85;99056.34;5044393;28;20041;-66
2022/04/23 08:04:24;;;;;;;9.93;5.10;;;;;;;23.20;43.42;99063.38;5044139;28;20316;-67
2022/04/23 08:06:49;;;;;;;13.02;6.00;;;;;;;23.07;43.71;99071.91;5043861;28;20022;-66
2022/04/23 08:09:15;;;;;;;13.43;6.13;;;;;;;23.20;42.13;99057.16;5044260;28;20075;-77
2022/04/23 08:11:40;;;;;;;12.73;5.93;;;;;;;23.19;44.17;99071.72;5042475;28;20302;-66
2022/04/23 08:14:06;;;;;;;9.63;5.95;;;;;;;22.81;45.03;99076.28;5043044;28;20045;-65
2022/04/23 08:16:31;;;;;;;11.73;6.57;;;;;;;22.92;43.63;99078.03;5041779;28;20068;-65
2022/04/23 08:18:57;;;;;;;15.20;6.35;;;;;;;23.20;42.69;99067.94;5043100;28;20083;-65
2022/04/23 08:21:23;;;;;;;18.65;7.47;;;;;;;23.38;44.29;99080.22;5042513;28;20318;-65
2022/04/23 08:23:48;;;;;;;15.48;6.85;;;;;;;23.45;42.90;99069.97;5043222;28;20026;-65
2022/04/23 08:26:13;;;;;;;9.75;5.90;;;;;;;23.55;42.39;99076.28;5042805;28;20075;-65
2022/04/23 08:31:23;;;;;;;12.10;6.45;;;;;;;23.82;41.06;99067.22;5042771;28;20079;-65
2022/04/23 08:34:00;;;;;;;13.23;7.30;;;;;;;24.19;41.33;99065.19;5042518;28;20045;-65
2022/04/23 08:36:36;;;;;;;19.73;7.75;;;;;;;24.25;40.29;99062.50;5042401;28;20040;-65
2022/04/23 08:39:04;;;;;;;15.15;8.65;;;;;;;24.40;40.10;99052.53;5042006;28;20040;-65
2022/04/23 08:41:31;;;;;;;17.85;9.45;;;;;;;24.11;40.93;99056.78;5042696;28;20080;-66
2022/04/23 08:44:10;;;;;;;16.80;9.48;;;;;;;24.06;41.70;99062.19;5040630;28;20029;-65
2022/04/23 08:46:38;;;;;;;16.17;8.70;;;;;;;23.92;42.00;99055.63;5042635;28;20410;-65
2022/04/23 08:49:16;;;;;;;15.23;8.30;;;;;;;23.35;43.14;99045.63;5042576;28;20047;-65
2022/04/23 08:51:53;;;;;;;14.38;7.93;;;;;;;23.78;41.61;99039.91;5040759;28;20266;-66
2022/04/23 08:54:22;;;;;;;11.95;6.07;;;;;;;23.67;43.40;99046.34;5042319;28;20044;-65
2022/04/23 08:56:47;;;;;;;12.63;6.38;;;;;;;23.81;41.84;99031.25;5042698;28;20057;-65
2022/04/23 08:59:15;;;;;;;10.65;4.82;;;;;;;23.84;41.19;99025.31;5041963;28;20135;-65
2022/04/23 09:01:41;;;;;;;9.13;5.07;;;;;;;23.55;41.94;99027.66;5042282;28;20037;-65
2022/04/23 09:04:08;;;;;;;11.82;4.43;;;;;;;23.40;42.42;99037.53;5041992;28;20029;-65
2022/04/23 09:06:38;;;;;;;10.98;5.25;;;;;;;23.24;43.05;99037.47;5041673;28;20104;-65
2022/04/23 09:09:06;;;;;;;10.60;4.35;;;;;;;23.02;44.80;99039.47;5042203;28;20100;-65
2022/04/23 09:11:35;;;;;;;10.77;4.30;;;;;;;23.07;43.03;99030.59;5042035;28;20076;-65
2022/04/23 09:14:04;;;;;;;8.70;4.10;;;;;;;22.77;43.02;99025.75;5041413;28;20042;-65
2022/04/23 09:25:03;;;;;;;6.00;3.65;;;;;;;23.12;42.03;99015.25;5040881;28;20041;-65
2022/04/23 09:27:30;;;;;;;15.13;4.60;;;;;;;23.36;42.32;99015.63;5041487;28;20235;-65
2022/04/23 09:30:06;;;;;;;10.65;4.32;;;;;;;23.28;42.37;99005.34;5041577;28;20060;-65
2022/04/23 09:32:32;;;;;;;11.18;4.22;;;;;;;23.51;42.68;99012.19;5041668;28;20219;-65
2022/04/23 09:35:12;;;;;;;7.97;4.32;;;;;;;23.63;40.89;99023.63;5040891;28;20033;-65
2022/04/23 09:40:26;;;;;;;12.30;4.35;;;;;;;23.33;42.95;99016.16;5041205;28;20037;-65
2022/04/23 09:42:56;;;;;;;12.73;4.65;;;;;;;23.41;41.71;99015.66;5040601;28;20323;-65
2022/04/23 09:45:25;;;;;;;8.05;4.28;;;;;;;23.45;43.01;99005.94;5038855;28;20101;-65
2022/04/23 09:47:50;;;;;;;9.90;4.05;;;;;;;23.38;42.26;99012.66;5040179;28;20291;-65
2022/04/23 09:50:16;;;;;;;12.70;4.10;;;;;;;23.32;41.77;99005.63;5040335;28;20076;-63
2022/04/23 09:52:42;;;;;;;16.88;4.20;;;;;;;23.27;39.18;98998.31;5040671;28;20357;-63
2022/04/23 09:55:10;;;;;;;13.40;6.03;;;;;;;23.11;42.38;98999.31;5040846;28;20215;-63
2022/04/23 09:57:38;;;;;;;12.95;6.32;;;;;;;22.81;44.01;98999.91;5040336;28;20021;-63
2022/04/23 10:00:07;;;;;;;11.57;6.18;;;;;;;22.93;43.54;98993.25;5040677;28;20060;-63
2022/04/23 10:02:32;;;;;;;12.40;5.80;;;;;;;22.87;43.29;98988.88;5040344;28;20239;-63
2022/04/23 10:05:01;;;;;;;14.40;5.70;;;;;;;23.00;41.65;98990.31;5040261;28;20049;-63
2022/04/23 10:07:29;;;;;;;12.27;5.05;;;;;;;22.77;42.95;98986.06;5040539;28;20303;-63
2022/04/23 10:09:57;;;;;;;13.15;4.13;;;;;;;22.85;40.45;98982.09;5040418;28;20057;-63
2022/04/23 10:12:24;;;;;;;14.38;4.53;;;;;;;23.09;40.48;98977.16;5039951;28;20025;-71
2022/04/23 10:14:56;;;;;;;8.00;4.03;;;;;;;22.93;40.34;98978.94;5040175;28;20033;-73
2022/04/23 10:17:24;;;;;;;11.00;3.65;;;;;;;23.15;39.67;98978.81;5039156;28;20029;-72
2022/04/23 10:19:50;;;;;;;8.60;3.70;;;;;;;23.30;39.90;98972.66;5038853;28;20029;-73
2022/04/23 10:22:25;;;;;;;9.07;3.33;;;;;;;22.92;40.36;98975.44;5040396;28;20070;-73
2022/04/23 10:25:25;;;;;;;13.95;4.00;;;;;;;23.16;40.76;98975.03;5039310;28;20201;-73
2022/04/23 10:27:55;;;;;;;16.67;4.40;;;;;;;23.12;41.27;98976.63;5039416;28;20254;-72
2022/04/23 10:30:21;;;;;;;10.50;4.25;;;;;;;23.18;39.64;98965.59;5040364;28;20053;-74
2022/04/23 10:32:47;;;;;;;13.85;3.72;;;;;;;23.08;40.17;98965.53;5040019;28;20319;-67
2022/04/23 10:35:19;;;;;;;10.45;4.13;;;;;;;23.03;38.92;98970.09;5039744;28;20029;-76
2022/04/23 10:37:49;;;;;;;15.52;3.63;;;;;;;22.84;39.05;98964.28;5044468;28;20406;-69
2022/04/23 10:40:19;;;;;;;11.25;3.20;;;;;;;22.49;39.62;98941.38;5043476;28;20326;-69
2022/04/23 10:43:12;;;;;;;8.32;3.20;;;;;;;22.67;40.69;98974.41;5043711;28;20053;-71
2022/04/23 10:45:40;;;;;;;12.05;3.38;;;;;;;22.60;42.98;98947.63;5043402;28;20037;-72
2022/04/23 10:48:24;;;;;;;11.27;3.63;;;;;;;22.59;42.51;98963.00;5044322;28;20068;-68
2022/04/23 10:51:19;;;;;;;14.98;3.80;;;;;;;22.74;41.20;98959.59;5043420;28;20053;-65
2022/04/23 10:53:46;;;;;;;8.80;3.45;;;;;;;22.61;42.24;98962.75;5042818;28;20076;-76
2022/04/23 10:56:17;;;;;;;12.85;3.58;;;;;;;22.87;40.44;98959.19;5044148;28;20045;-73
2022/04/23 10:58:43;;;;;;;5.90;2.90;;;;;;;22.71;42.53;98957.44;5042722;28;20330;-77
2022/04/23 11:01:20;;;;;;;14.40;3.90;;;;;;;22.97;41.80;98952.25;5042409;28;20331;-75
2022/04/23 11:03:52;;;;;;;9.90;3.38;;;;;;;22.94;42.41;98953.59;5043613;28;20040;-71
2022/04/23 11:12:18;;;;;;;11.20;3.20;;;;;;;22.94;41.95;98942.78;5043473;28;19927;-72
2022/04/23 11:14:45;;;;;;;8.18;2.92;;;;;;;22.90;43.53;98942.50;5043444;28;20111;-75
2022/04/23 11:17:14;;;;;;;12.85;3.50;;;;;;;22.97;41.48;98944.97;5043524;28;20034;-76
2022/04/23 11:19:41;;;;;;;15.60;3.42;;;;;;;22.96;42.46;98940.63;5042274;28;20037;-72
2022/04/23 11:22:09;;;;;;;12.60;3.00;;;;;;;22.50;42.16;98924.09;5043124;28;20037;-74
2022/04/23 11:24:34;;;;;;;12.32;3.42;;;;;;;22.77;44.54;98942.91;5043155;28;20021;-74
2022/04/23 11:27:00;;;;;;;6.47;2.85;;;;;;;22.81;43.18;98944.03;5043371;28;20323;-70
2022/04/23 11:29:27;;;;;;;13.98;3.47;;;;;;;22.89;42.27;98940.88;5043316;28;20041;-70
2022/04/23 11:31:56;;;;;;;9.93;2.75;;;;;;;22.91;42.10;98944.13;5042427;28;20038;-68
2022/04/23 11:34:22;;;;;;;12.02;2.90;;;;;;;22.99;43.70;98942.00;5042801;28;20103;-69
2022/04/23 11:36:48;;;;;;;9.32;3.08;;;;;;;22.98;43.26;98933.09;5042832;28;20025;-69
2022/04/23 11:39:14;;;;;;;18.05;4.05;;;;;;;22.96;41.28;98929.03;5043066;28;20036;-66
2022/04/23 11:41:44;;;;;;;11.60;3.10;;;;;;;23.25;41.78;98932.94;5043020;28;20048;-81
2022/04/23 11:44:15;;;;;;;20.88;3.33;;;;;;;23.16;42.00;98937.22;5041473;28;20029;-70
2022/04/23 11:46:45;;;;;;;12.63;3.08;;;;;;;22.97;41.66;98941.44;5040480;28;20103;-68